createdAt,value
2022-10-30T00:02:55.902Z,99.90
2022-10-30T00:07:18.127Z,99.90
2022-10-30T00:11:41.753Z,99.90
2022-10-30T00:16:07.630Z,99.90
2022-10-30T00:20:29.706Z,99.90
2022-10-30T00:24:51.590Z,99.90
2022-10-30T00:29:13.471Z,99.90
2022-10-30T00:33:35.554Z,99.90
2022-10-30T00:38:01.356Z,99.90
2022-10-30T00:42:29.249Z,99.90
2022-10-30T00:46:51.363Z,99.90
2022-10-30T00:51:13.833Z,99.90
2022-10-30T00:55:41.984Z,99.90
2022-10-30T01:00:07.918Z,99.90
2022-10-30T01:04:34.283Z,99.90
2022-10-30T01:08:59.850Z,99.90
2022-10-30T01:13:23.966Z,99.90
2022-10-30T01:18:31.685Z,99.90
2022-10-30T01:23:41.985Z,99.90
2022-10-30T01:28:15.560Z,99.90
2022-10-30T01:33:12.980Z,99.90
2022-10-30T01:38:05.737Z,99.90
2022-10-30T01:42:56.950Z,99.90
2022-10-30T01:48:19.306Z,99.90
2022-10-30T01:53:17.471Z,99.90
2022-10-30T01:58:06.689Z,99.90
2022-10-30T02:02:33.044Z,99.90
2022-10-30T02:06:55.235Z,99.90
2022-10-30T02:11:18.384Z,99.90
2022-10-30T02:15:42.878Z,99.90
2022-10-30T02:20:05.567Z,99.90
2022-10-30T02:24:28.909Z,99.90
2022-10-30T02:28:51.810Z,99.90
2022-10-30T02:33:13.886Z,99.90
2022-10-30T02:37:36.416Z,99.90
2022-10-30T02:41:58.325Z,99.90
2022-10-30T02:46:20.854Z,99.90
2022-10-30T02:50:44.062Z,99.90
2022-10-30T02:55:06.369Z,99.90
2022-10-30T02:59:29.233Z,99.90
2022-10-30T03:03:52.922Z,99.90
2022-10-30T03:08:14.833Z,99.90
2022-10-30T03:12:36.741Z,99.90
2022-10-30T03:16:58.808Z,99.90
2022-10-30T03:21:23.251Z,99.90
2022-10-30T03:25:44.859Z,99.90
2022-10-30T03:30:07.775Z,99.90
2022-10-30T03:34:29.800Z,99.90
2022-10-30T03:38:58.406Z,99.90
2022-10-30T03:43:21.904Z,99.90
2022-10-30T03:47:43.996Z,99.90
2022-10-30T03:52:05.995Z,99.90
2022-10-30T03:56:27.980Z,99.90
2022-10-30T04:00:54.495Z,99.90
2022-10-30T04:05:19.456Z,99.90
2022-10-30T04:09:42.368Z,99.90
2022-10-30T04:14:04.494Z,99.90
2022-10-30T04:18:27.788Z,99.90
2022-10-30T04:22:56.335Z,99.90
2022-10-30T04:27:18.304Z,99.90
2022-10-30T04:31:40.460Z,99.90
2022-10-30T04:36:02.591Z,99.90
2022-10-30T04:40:33.742Z,99.90
2022-10-30T04:44:59.157Z,99.90
2022-10-30T04:49:21.044Z,99.90
2022-10-30T04:53:43.614Z,99.90
2022-10-30T04:58:09.976Z,99.90
2022-10-30T05:02:37.498Z,99.90
2022-10-30T05:06:59.634Z,99.90
2022-10-30T05:11:21.820Z,99.90
2022-10-30T05:15:43.903Z,99.90
2022-10-30T05:20:07.313Z,99.90
2022-10-30T05:24:28.999Z,99.90
2022-10-30T05:28:50.880Z,99.90
2022-10-30T05:33:15.939Z,99.90
2022-10-30T05:37:38.195Z,99.90
2022-10-30T05:42:00.289Z,99.90
2022-10-30T05:46:33.874Z,99.90
2022-10-30T05:51:10.599Z,99.90
2022-10-30T05:55:36.651Z,99.90
2022-10-30T06:00:09.266Z,99.90
2022-10-30T06:04:37.120Z,99.90
2022-10-30T06:09:04.061Z,99.90
2022-10-30T06:13:33.592Z,99.90
2022-10-30T06:18:00.904Z,99.90
2022-10-30T06:23:00.271Z,99.90
2022-10-30T06:27:29.793Z,99.90
2022-10-30T06:31:51.707Z,99.90
2022-10-30T06:36:13.699Z,99.90
2022-10-30T06:40:36.185Z,99.90
2022-10-30T06:45:14.182Z,99.90
2022-10-30T06:49:36.227Z,99.90
2022-10-30T06:53:58.287Z,99.90
2022-10-30T06:58:39.062Z,99.90
2022-10-30T07:03:08.910Z,99.90
2022-10-30T07:07:31.069Z,99.90
2022-10-30T07:11:56.669Z,99.90
2022-10-30T07:16:18.769Z,99.90
2022-10-30T07:20:44.415Z,99.90
2022-10-30T07:25:06.630Z,99.90
2022-10-30T07:29:48.712Z,99.90
2022-10-30T07:34:16.793Z,99.90
2022-10-30T07:38:58.362Z,99.90
2022-10-30T07:43:25.519Z,99.90
2022-10-30T07:47:57.386Z,99.90
2022-10-30T07:52:42.847Z,99.90
2022-10-30T07:57:04.525Z,99.90
2022-10-30T08:01:49.949Z,99.90
2022-10-30T08:06:27.001Z,99.90
2022-10-30T08:10:49.360Z,99.90
2022-10-30T08:15:12.479Z,99.90
2022-10-30T08:19:34.786Z,99.90
2022-10-30T08:23:56.781Z,99.90
2022-10-30T08:28:21.798Z,99.90
2022-10-30T08:32:43.790Z,99.90
2022-10-30T08:37:24.139Z,99.90
2022-10-30T08:41:46.300Z,99.90
2022-10-30T08:46:08.014Z,99.90
2022-10-30T08:50:32.235Z,99.90
2022-10-30T08:54:54.428Z,99.90
2022-10-30T08:59:21.288Z,99.90
2022-10-30T09:03:46.421Z,99.90
2022-10-30T09:08:28.878Z,99.90
2022-10-30T09:13:02.540Z,98.10
2022-10-30T09:17:25.588Z,96.80
2022-10-30T09:21:47.419Z,96.80
2022-10-30T09:26:09.636Z,97.50
2022-10-30T09:30:45.634Z,94.90
2022-10-30T09:35:11.840Z,90.70
2022-10-30T09:39:35.336Z,83.60
2022-10-30T09:44:32.296Z,74.00
2022-10-30T09:49:15.287Z,72.70
2022-10-30T09:54:10.719Z,68.20
2022-10-30T09:58:47.646Z,64.50
2022-10-30T10:03:25.544Z,61.10
2022-10-30T10:08:27.141Z,55.90
2022-10-30T10:13:38.503Z,51.80
2022-10-30T10:18:02.768Z,49.50
2022-10-30T10:22:36.770Z,47.50
2022-10-30T10:27:36.680Z,47.90
2022-10-30T10:32:24.354Z,46.90
2022-10-30T10:37:03.901Z,46.70
2022-10-30T10:42:10.428Z,47.00
2022-10-30T10:47:07.607Z,46.10
2022-10-30T10:51:58.106Z,45.20
2022-10-30T10:56:22.654Z,46.40
2022-10-30T11:00:46.019Z,45.60
2022-10-30T11:05:41.919Z,46.60
2022-10-30T11:10:14.622Z,45.90
2022-10-30T11:14:38.006Z,46.00
2022-10-30T11:19:03.996Z,45.80
2022-10-30T11:23:32.625Z,45.90
2022-10-30T11:27:57.632Z,46.30
2022-10-30T11:32:23.024Z,45.70
2022-10-30T11:36:46.666Z,46.70
2022-10-30T11:41:12.476Z,46.80
2022-10-30T11:45:40.354Z,47.20
2022-10-30T11:50:27.337Z,48.90
2022-10-30T11:54:56.218Z,49.00
2022-10-30T11:59:22.889Z,48.70
2022-10-30T12:03:44.835Z,49.70
2022-10-30T12:08:09.562Z,51.70
2022-10-30T12:12:41.675Z,51.40
2022-10-30T12:17:04.764Z,54.50
2022-10-30T12:21:29.611Z,57.50
2022-10-30T12:26:11.124Z,58.90
2022-10-30T12:30:39.256Z,59.50
2022-10-30T12:35:09.614Z,61.20
2022-10-30T12:40:01.717Z,62.20
2022-10-30T12:44:52.249Z,61.60
2022-10-30T12:49:43.401Z,62.90
2022-10-30T12:54:36.757Z,63.90
2022-10-30T12:59:46.487Z,63.50
2022-10-30T13:04:17.948Z,64.70
2022-10-30T13:09:18.545Z,65.50
2022-10-30T13:13:48.413Z,66.20
2022-10-30T13:18:20.191Z,66.40
2022-10-30T13:22:52.386Z,67.60
2022-10-30T13:27:31.410Z,68.20
2022-10-30T13:32:34.320Z,68.60
2022-10-30T13:37:08.994Z,68.90
2022-10-30T13:41:56.872Z,68.60
2022-10-30T13:46:32.546Z,68.30
2022-10-30T13:51:40.983Z,69.00
2022-10-30T13:56:04.397Z,69.30
2022-10-30T14:00:57.232Z,70.00
2022-10-30T14:05:31.117Z,69.40
2022-10-30T14:10:07.437Z,71.00
2022-10-30T14:14:31.768Z,72.10
2022-10-30T14:19:01.905Z,72.90
2022-10-30T14:23:38.288Z,74.30
2022-10-30T14:28:00.641Z,73.50
2022-10-30T14:32:22.544Z,73.50
2022-10-30T14:36:44.486Z,74.30
2022-10-30T14:41:41.131Z,75.00
2022-10-30T14:46:36.920Z,76.00
2022-10-30T14:51:21.420Z,76.60
2022-10-30T14:56:08.027Z,77.40
2022-10-30T15:00:35.828Z,77.60
2022-10-30T15:05:29.540Z,78.40
2022-10-30T15:10:05.505Z,79.00
2022-10-30T15:14:52.989Z,79.70
2022-10-30T15:19:16.629Z,80.30
2022-10-30T15:23:41.590Z,81.60
2022-10-30T15:28:05.029Z,83.10
2022-10-30T15:32:26.976Z,85.70
2022-10-30T15:36:48.555Z,87.40
2022-10-30T15:41:11.094Z,90.30
2022-10-30T15:45:42.622Z,91.60
2022-10-30T15:50:05.497Z,92.80
2022-10-30T15:54:29.281Z,94.30
2022-10-30T15:58:57.775Z,96.50
2022-10-30T16:03:19.594Z,99.60
2022-10-30T16:07:46.103Z,99.90
2022-10-30T16:12:11.779Z,99.90
2022-10-30T16:16:34.433Z,99.90
2022-10-30T16:21:03.019Z,99.90
2022-10-30T16:25:25.202Z,99.90
2022-10-30T16:29:56.099Z,99.90
2022-10-30T16:34:36.760Z,99.90
2022-10-30T16:38:59.405Z,99.90
2022-10-30T16:43:33.132Z,99.90
2022-10-30T16:48:09.223Z,99.90
2022-10-30T16:52:38.261Z,99.90
2022-10-30T16:57:03.031Z,99.90
2022-10-30T17:01:28.382Z,99.90
2022-10-30T17:06:07.663Z,99.90
2022-10-30T17:10:37.405Z,99.90
2022-10-30T17:15:12.790Z,99.90
2022-10-30T17:19:39.230Z,99.90
2022-10-30T17:24:01.277Z,99.90
2022-10-30T17:28:34.690Z,99.90
2022-10-30T17:32:57.599Z,99.90
2022-10-30T17:37:19.942Z,99.90
2022-10-30T17:41:43.124Z,99.90
2022-10-30T17:46:04.977Z,99.90
2022-10-30T17:50:27.032Z,99.90
2022-10-30T17:54:49.163Z,99.90
2022-10-30T17:59:11.182Z,99.90
2022-10-30T18:03:33.546Z,99.90
2022-10-30T18:07:55.210Z,99.90
2022-10-30T18:12:17.755Z,99.90
2022-10-30T18:16:39.800Z,99.90
2022-10-30T18:21:01.798Z,99.90
2022-10-30T18:25:35.147Z,99.90
2022-10-30T18:29:57.088Z,99.90
2022-10-30T18:34:22.643Z,99.90
2022-10-30T18:38:44.527Z,99.90
2022-10-30T18:43:12.178Z,99.90
2022-10-30T18:47:34.157Z,99.90
2022-10-30T18:51:56.203Z,99.90
2022-10-30T18:56:20.586Z,99.90
2022-10-30T19:01:09.900Z,99.90
2022-10-30T19:05:48.200Z,99.90
2022-10-30T19:10:09.992Z,99.90
2022-10-30T19:14:32.531Z,99.90
2022-10-30T19:18:54.692Z,99.90
2022-10-30T19:23:19.183Z,99.90
2022-10-30T19:27:41.227Z,99.90
2022-10-30T19:32:03.377Z,99.90
2022-10-30T19:36:27.417Z,99.90
2022-10-30T19:40:50.115Z,99.90
2022-10-30T19:45:13.268Z,99.90
2022-10-30T19:49:35.534Z,99.90
2022-10-30T19:53:57.257Z,99.90
2022-10-30T19:58:22.224Z,99.90
2022-10-30T20:02:48.140Z,99.90
2022-10-30T20:07:10.058Z,99.90
2022-10-30T20:11:32.186Z,99.90
2022-10-30T20:15:55.686Z,99.90
2022-10-30T20:20:40.381Z,99.90
2022-10-30T20:25:02.307Z,99.90
2022-10-30T20:29:25.224Z,99.90
2022-10-30T20:33:47.349Z,99.90
2022-10-30T20:38:29.332Z,99.90
2022-10-30T20:42:52.633Z,99.90
2022-10-30T20:47:15.614Z,99.90
2022-10-30T20:51:37.561Z,99.90
2022-10-30T20:55:59.912Z,99.90
2022-10-30T21:00:21.688Z,99.90
2022-10-30T21:04:43.761Z,99.90
2022-10-30T21:09:06.057Z,99.90
2022-10-30T21:13:29.020Z,99.90
2022-10-30T21:17:51.283Z,99.90
2022-10-30T21:22:13.244Z,99.90
2022-10-30T21:26:36.599Z,99.90
2022-10-30T21:31:07.759Z,99.90
2022-10-30T21:35:29.830Z,99.90
2022-10-30T21:39:52.055Z,99.90
2022-10-30T21:44:15.587Z,99.90
2022-10-30T21:48:38.100Z,99.90
2022-10-30T21:53:00.479Z,99.90
2022-10-30T21:57:22.395Z,99.90
2022-10-30T22:01:44.603Z,99.90
2022-10-30T22:06:12.941Z,99.90
2022-10-30T22:10:34.962Z,99.90
2022-10-30T22:14:56.899Z,99.90
2022-10-30T22:19:18.835Z,99.90
2022-10-30T22:23:41.819Z,99.90
2022-10-30T22:28:03.930Z,99.90
2022-10-30T22:32:26.312Z,99.90
2022-10-30T22:36:48.046Z,99.90
2022-10-30T22:41:16.631Z,99.90
2022-10-30T22:45:38.370Z,99.90
2022-10-30T22:50:00.175Z,99.90
2022-10-30T22:54:22.292Z,99.90
2022-10-30T22:58:46.368Z,99.90
2022-10-30T23:03:08.301Z,99.90
2022-10-30T23:07:30.365Z,99.90
2022-10-30T23:11:52.441Z,99.90
2022-10-30T23:16:21.930Z,99.90
2022-10-30T23:20:46.570Z,99.90
2022-10-30T23:25:08.541Z,99.90
2022-10-30T23:29:30.313Z,99.90
2022-10-30T23:33:57.958Z,99.90
2022-10-30T23:38:19.667Z,99.90
2022-10-30T23:42:41.763Z,99.90
2022-10-30T23:47:03.921Z,99.90
2022-10-30T23:51:25.635Z,99.90
2022-10-30T23:55:55.183Z,99.90
